KPDT

Eastern Oregon Regional at Pendleton Airport

Pendleton, Oregon, USA
METAR KPDT 201653Z 15003KT 8SM CLR 08/03 A3021 RMK AO2 SLP230 T00780033
Observed Flight Rules
Oct-20 @ 16:53 UTC (50 minutes ago) Visual Flight Rules
Wind Visibility Clouds
150° at 3 knots 8 miles
  • Clear skies
Temperatures Readings
Current 8°C / 46°F
Dewpoint 3°C / 37°F
Humidity 71%
Altimeter 30.21" Hg
Pressure 1023 hPa
Elevation 462
METAR KPDT 201653Z 15003KT 8SM CLR 08/03 A3021 RMK AO2 SLP230 T00780033
Observed Flight Rules
Oct-20 @ 16:53 UTC
(50 minutes ago)
VFR
Wind Visibility
150° at 3 knots 8 miles
Clouds
  • Clear skies
Temperature Dewpoint
8°C / 46°F 3°C / 37°F
Humidity Altimeter Pressure
71% 30.21" Hg 1023 hPa